Time;durP1;ratioP1;P1;durP2;ratioP2;P2;SDS_P1;SDS_P2;PMS_P1;PMS_P2;Temp;Humidity;BMP_temperature;BMP_pressure;BME280_temperature;BME280_humidity;BME280_pressure;Samples;Min_cycle;Max_cycle;Signal;HPM_P1;HPM_P2
2021/08/07 00:00:46;;;;;;;;;;;;;;;17.44;83.27;100393.25;5034069;28;19967;-47
2021/08/07 00:03:13;;;;;;;;;;;;;;;17.36;84.02;100390.53;5048551;28;20295;-49
2021/08/07 00:05:40;;;;;;;;;;;;;;;17.34;83.30;100384.53;5051119;28;19964;-49
2021/08/07 00:08:06;;;;;;;;;;;;;;;17.32;82.35;100383.88;5036029;28;19967;-44
2021/08/07 00:10:33;;;;;;;;;;;;;;;17.22;82.56;100381.31;5035632;28;19925;-50
2021/08/07 00:13:02;;;;;;;;;;;;;;;17.23;83.00;100382.94;5031112;28;20125;-51
2021/08/07 00:15:29;;;;;;;;;;;;;;;17.24;83.27;100385.44;5047845;28;20376;-48
2021/08/07 00:17:56;;;;;;;;;;;;;;;17.18;84.02;100386.09;5034861;28;19921;-47
2021/08/07 00:20:23;;;;;;;;;;;;;;;17.23;82.40;100383.81;5048303;28;19964;-49
2021/08/07 00:22:50;;;;;;;;;;;;;;;17.23;83.10;100388.25;5034082;28;19975;-49
2021/08/07 00:25:16;;;;;;;;;;;;;;;17.26;83.47;100387.97;5035674;28;19928;-49
2021/08/07 00:27:43;;;;;;;;;;;;;;;17.25;82.92;100388.97;5035423;28;20380;-48
2021/08/07 00:30:11;;;;;;;;;;;;;;;17.21;83.04;100390.25;5035303;28;19920;-44
2021/08/07 00:32:38;;;;;;;;;;;;;;;17.18;83.21;100393.22;5032459;28;19921;-46
2021/08/07 00:35:06;;;;;;;;;;;;;;;17.20;83.14;100389.41;5034052;28;20430;-44
2021/08/07 00:37:32;;;;;;;;;;;;;;;17.19;82.44;100381.59;5033947;28;19925;-47
2021/08/07 00:39:59;;;;;;;;;;;;;;;17.19;82.49;100370.97;5032149;28;19928;-47
2021/08/07 00:42:26;;;;;;;;;;;;;;;17.20;82.75;100383.25;5033670;28;19974;-45
2021/08/07 00:44:53;;;;;;;;;;;;;;;17.18;82.55;100372.78;5034000;28;19921;-47
2021/08/07 00:47:19;;;;;;;;;;;;;;;17.11;82.97;100373.56;5034195;28;19983;-50
2021/08/07 00:49:47;;;;;;;;;;;;;;;17.15;83.14;100374.91;5035110;28;19936;-47
2021/08/07 00:52:14;;;;;;;;;;;;;;;17.15;83.04;100380.22;5033344;28;19921;-45
2021/08/07 00:54:41;;;;;;;;;;;;;;;17.03;83.03;100380.47;5032386;28;19921;-46
2021/08/07 00:57:07;;;;;;;;;;;;;;;17.04;83.41;100373.34;5033194;28;19979;-48
2021/08/07 00:59:34;;;;;;;;;;;;;;;17.00;83.58;100371.97;5050108;28;19928;-45
2021/08/07 01:02:02;;;;;;;;;;;;;;;16.97;83.78;100372.28;5034958;28;19921;-47
2021/08/07 01:04:31;;;;;;;;;;;;;;;16.96;83.74;100371.47;5050147;28;20284;-45
2021/08/07 01:07:01;;;;;;;;;;;;;;;16.95;84.67;100368.97;5048253;28;19921;-47
2021/08/07 01:09:31;;;;;;;;;;;;;;;16.95;84.64;100372.44;5032067;28;19925;-52
2021/08/07 01:12:00;;;;;;;;;;;;;;;16.84;85.62;100377.97;5034438;28;19921;-48
2021/08/07 01:14:37;;;;;;;;;;;;;;;16.85;86.05;100380.47;5034628;28;19952;-47
2021/08/07 01:17:04;;;;;;;;;;;;;;;16.79;86.56;100373.09;5049882;28;19928;-47
2021/08/07 01:19:33;;;;;;;;;;;;;;;16.79;87.25;100380.25;5050110;28;19971;-51
2021/08/07 01:22:00;;;;;;;;;;;;;;;16.82;87.13;100372.78;5049941;28;20368;-46
2021/08/07 01:24:29;;;;;;;;;;;;;;;16.80;87.21;100376.59;5034681;28;19920;-46
2021/08/07 01:26:59;;;;;;;;;;;;;;;16.83;87.31;100381.59;5034441;28;19964;-43
2021/08/07 01:29:26;;;;;;;;;;;;;;;16.78;87.70;100381.22;5034223;28;19925;-44
2021/08/07 01:31:53;;;;;;;;;;;;;;;16.77;87.85;100372.44;5034341;28;19920;-43
2021/08/07 01:34:20;;;;;;;;;;;;;;;16.81;87.63;100378.25;5031841;28;19921;-43
2021/08/07 01:36:47;;;;;;;;;;;;;;;16.78;88.17;100384.69;5046861;28;20288;-46
2021/08/07 01:39:13;;;;;;;;;;;;;;;16.73;88.43;100377.19;5048697;28;19921;-44
2021/08/07 01:41:40;;;;;;;;;;;;;;;16.69;88.54;100381.13;5049331;28;19921;-59
2021/08/07 01:44:07;;;;;;;;;;;;;;;16.67;88.76;100382.28;5049471;28;19921;-60
2021/08/07 01:46:48;;;;;;;;;;;;;;;16.74;88.56;100380.69;5034105;28;19967;-60
2021/08/07 01:49:16;;;;;;;;;;;;;;;16.75;88.57;100374.38;5033994;28;20295;-60
2021/08/07 01:51:44;;;;;;;;;;;;;;;16.75;88.70;100362.94;5034021;28;20399;-60
2021/08/07 01:54:11;;;;;;;;;;;;;;;16.69;88.72;100359.91;5033269;28;19925;-59
2021/08/07 01:56:41;;;;;;;;;;;;;;;16.72;88.74;100364.91;5033343;28;20019;-59
2021/08/07 01:59:09;;;;;;;;;;;;;;;16.69;88.84;100359.91;5044974;28;19932;-59
2021/08/07 02:01:36;;;;;;;;;;;;;;;16.75;88.22;100355.81;5029985;28;20376;-59
2021/08/07 02:04:03;;;;;;;;;;;;;;;16.77;88.25;100360.94;5048740;28;19960;-60
2021/08/07 02:06:29;;;;;;;;;;;;;;;16.72;87.97;100353.47;5033595;28;19925;-59
2021/08/07 02:08:56;;;;;;;;;;;;;;;16.62;88.52;100355.34;5033719;28;20368;-59
2021/08/07 02:11:23;;;;;;;;;;;;;;;16.68;88.02;100357.41;5049176;28;20360;-59
2021/08/07 02:13:49;;;;;;;;;;;;;;;16.70;87.58;100358.06;5048573;28;20012;-59
2021/08/07 02:16:17;;;;;;;;;;;;;;;16.62;87.79;100353.53;5033737;28;20268;-59
2021/08/07 02:18:44;;;;;;;;;;;;;;;16.56;87.65;100356.78;5033550;28;19921;-59
2021/08/07 02:21:11;;;;;;;;;;;;;;;16.51;87.76;100349.28;5033904;28;19921;-59
2021/08/07 02:23:38;;;;;;;;;;;;;;;16.53;87.49;100354.44;5031958;28;19925;-48
2021/08/07 02:26:06;;;;;;;;;;;;;;;16.47;87.41;100349.72;5045926;28;19934;-50
2021/08/07 02:28:32;;;;;;;;;;;;;;;16.41;87.56;100352.97;5047631;28;20304;-48
2021/08/07 02:31:00;;;;;;;;;;;;;;;16.39;87.44;100353.97;5048415;28;19925;-48
2021/08/07 02:33:27;;;;;;;;;;;;;;;16.39;87.60;100348.66;5031796;28;20273;-44
2021/08/07 02:35:54;;;;;;;;;;;;;;;16.35;87.51;100349.94;5033204;28;19925;-45
2021/08/07 02:38:22;;;;;;;;;;;;;;;16.27;87.82;100349.03;5048516;28;19921;-46
2021/08/07 02:40:49;;;;;;;;;;;;;;;16.26;87.36;100347.34;5046421;28;20346;-44
2021/08/07 02:43:16;;;;;;;;;;;;;;;16.22;87.61;100352.09;5028656;28;19956;-47
2021/08/07 02:45:43;;;;;;;;;;;;;;;16.16;87.68;100342.94;5048046;28;19975;-47
2021/08/07 02:48:10;;;;;;;;;;;;;;;16.13;87.92;100343.25;5048741;28;19921;-44
2021/08/07 02:50:37;;;;;;;;;;;;;;;16.06;88.54;100347.47;5031166;28;19921;-48
2021/08/07 02:53:04;;;;;;;;;;;;;;;16.13;87.52;100348.53;5047759;28;20406;-49
2021/08/07 02:55:30;;;;;;;;;;;;;;;16.08;87.53;100344.66;5032818;28;19925;-47
2021/08/07 02:57:57;;;;;;;;;;;;;;;16.01;88.05;100347.06;5032995;28;20399;-48
2021/08/07 03:00:24;;;;;;;;;;;;;;;16.00;88.19;100346.22;5048062;28;19971;-48
2021/08/07 03:02:51;;;;;;;;;;;;;;;15.93;88.50;100353.09;5032891;28;20344;-48
2021/08/07 03:05:20;;;;;;;;;;;;;;;15.85;89.20;100353.81;5031401;28;20364;-45
2021/08/07 03:07:47;;;;;;;;;;;;;;;15.94;89.27;100353.94;5028143;28;19924;-47
2021/08/07 03:10:14;;;;;;;;;;;;;;;15.88;89.53;100350.06;5032365;28;19921;-46
2021/08/07 03:12:43;;;;;;;;;;;;;;;15.85;90.02;100351.16;5032420;28;19925;-47
2021/08/07 03:15:11;;;;;;;;;;;;;;;15.87;89.86;100346.56;5032097;28;20311;-47
2021/08/07 03:17:38;;;;;;;;;;;;;;;15.83;89.70;100339.06;5030300;28;19944;-45
2021/08/07 03:20:05;;;;;;;;;;;;;;;15.91;89.75;100344.47;5046532;28;19925;-48
2021/08/07 03:22:32;;;;;;;;;;;;;;;15.84;89.82;100341.56;5032578;28;19925;-47
2021/08/07 03:24:59;;;;;;;;;;;;;;;15.84;89.94;100346.03;5032682;28;19921;-47
2021/08/07 03:27:25;;;;;;;;;;;;;;;15.83;89.37;100345.19;5047516;28;20379;-48
2021/08/07 03:29:52;;;;;;;;;;;;;;;15.85;89.62;100337.09;5027517;28;20372;-46
2021/08/07 03:32:19;;;;;;;;;;;;;;;15.79;89.52;100330.53;5031107;28;19921;-47
2021/08/07 03:34:45;;;;;;;;;;;;;;;15.85;89.36;100339.75;5032589;28;20352;-48
2021/08/07 03:37:12;;;;;;;;;;;;;;;15.84;89.36;100338.91;5047844;28;19928;-49
2021/08/07 03:39:39;;;;;;;;;;;;;;;15.81;89.31;100343.66;5047854;28;20304;-45
2021/08/07 03:42:06;;;;;;;;;;;;;;;15.79;89.19;100340.28;5032517;28;20299;-46
2021/08/07 03:44:32;;;;;;;;;;;;;;;15.88;88.34;100348.25;5032427;28;19925;-45
2021/08/07 03:46:59;;;;;;;;;;;;;;;15.82;88.55;100342.69;5031276;28;19921;-48
2021/08/07 03:49:26;;;;;;;;;;;;;;;15.79;88.74;100337.63;5029502;28;20327;-46
2021/08/07 03:51:52;;;;;;;;;;;;;;;15.75;88.70;100338.91;5031504;28;19983;-45
2021/08/07 03:54:19;;;;;;;;;;;;;;;15.75;89.02;100345.06;5031916;28;20375;-46
2021/08/07 03:56:46;;;;;;;;;;;;;;;15.72;89.29;100340.88;5032142;28;20019;-60
2021/08/07 03:59:12;;;;;;;;;;;;;;;15.71;89.59;100347.16;5031939;28;20131;-47
2021/08/07 04:01:39;;;;;;;;;;;;;;;15.75;89.14;100342.41;5032337;28;19936;-46
2021/08/07 04:04:07;;;;;;;;;;;;;;;15.80;89.21;100342.84;5035782;28;19928;-46
2021/08/07 04:06:34;;;;;;;;;;;;;;;15.85;89.22;100342.41;5036097;28;19936;-46
2021/08/07 04:09:00;;;;;;;;;;;;;;;15.78;89.94;100339.47;5035816;28;19921;-46
2021/08/07 04:11:27;;;;;;;;;;;;;;;15.83;89.74;100337.25;5033104;28;19921;-46
2021/08/07 04:13:54;;;;;;;;;;;;;;;15.82;89.54;100332.09;5031491;28;19921;-44
2021/08/07 04:16:20;;;;;;;;;;;;;;;15.83;89.92;100339.06;5035327;28;19975;-50
2021/08/07 04:18:48;;;;;;;;;;;;;;;15.79;90.10;100334.97;5034250;28;20292;-45
2021/08/07 04:21:14;;;;;;;;;;;;;;;15.83;90.18;100331.13;5035553;28;19971;-47
2021/08/07 04:23:41;;;;;;;;;;;;;;;15.85;90.21;100332.63;5035159;28;19931;-47
2021/08/07 04:26:08;;;;;;;;;;;;;;;15.83;90.41;100339.06;5033021;28;19983;-50
2021/08/07 04:28:34;;;;;;;;;;;;;;;15.87;90.09;100335.16;5032574;28;20327;-46
2021/08/07 04:31:01;;;;;;;;;;;;;;;15.87;90.19;100345.75;5035629;28;19925;-46
2021/08/07 04:33:28;;;;;;;;;;;;;;;15.85;90.30;100329.13;5035430;28;20009;-49
2021/08/07 04:35:54;;;;;;;;;;;;;;;15.84;90.51;100335.41;5035271;28;19983;-50
2021/08/07 04:38:21;;;;;;;;;;;;;;;15.84;90.70;100338.06;5031250;28;19999;-45
2021/08/07 04:40:48;;;;;;;;;;;;;;;15.83;90.50;100331.13;5033404;28;19921;-45
2021/08/07 04:43:15;;;;;;;;;;;;;;;15.85;90.24;100337.91;5035338;28;20288;-46
2021/08/07 04:45:41;;;;;;;;;;;;;;;15.85;90.44;100324.66;5035210;28;19955;-45
2021/08/07 04:48:08;;;;;;;;;;;;;;;15.83;90.16;100325.81;5035220;28;19921;-44
2021/08/07 04:50:35;;;;;;;;;;;;;;;15.87;89.76;100327.19;5032067;28;19934;-47
2021/08/07 04:53:04;;;;;;;;;;;;;;;15.89;89.50;100328.69;5032439;28;19921;-46
2021/08/07 04:55:31;;;;;;;;;;;;;;;15.89;89.78;100333.16;5050226;28;19928;-48
2021/08/07 04:57:58;;;;;;;;;;;;;;;15.88;89.78;100331.50;5035056;28;19921;-46
2021/08/07 05:00:24;;;;;;;;;;;;;;;15.83;89.47;100331.13;5035064;28;19921;-50
2021/08/07 05:02:51;;;;;;;;;;;;;;;15.82;89.56;100334.75;5034910;28;19921;-47
2021/08/07 05:05:18;;;;;;;;;;;;;;;15.78;89.61;100339.47;5034776;28;20383;-50
2021/08/07 05:07:47;;;;;;;;;;;;;;;15.82;89.06;100330.25;5050167;28;20311;-48
2021/08/07 05:10:15;;;;;;;;;;;;;;;15.86;88.92;100338.78;5049760;28;19921;-60
2021/08/07 05:12:42;;;;;;;;;;;;;;;15.91;88.71;100333.00;5031853;28;19921;-48
2021/08/07 05:15:09;;;;;;;;;;;;;;;15.93;88.55;100336.38;5030339;28;19928;-48
2021/08/07 05:17:36;;;;;;;;;;;;;;;15.97;88.56;100340.41;5034163;28;20023;-49
2021/08/07 05:20:02;;;;;;;;;;;;;;;15.94;89.25;100333.56;5034759;28;19921;-49
2021/08/07 05:22:29;;;;;;;;;;;;;;;15.96;88.98;100333.41;5034506;28;20285;-45
2021/08/07 05:24:57;;;;;;;;;;;;;;;16.03;88.59;100332.69;5034510;28;19925;-48
2021/08/07 05:27:23;;;;;;;;;;;;;;;16.01;88.46;100334.63;5034840;28;20371;-47
2021/08/07 05:29:50;;;;;;;;;;;;;;;16.08;88.52;100329.56;5034202;28;19933;-44
2021/08/07 05:32:17;;;;;;;;;;;;;;;16.12;87.78;100328.28;5033971;28;19974;-60
2021/08/07 05:34:43;;;;;;;;;;;;;;;16.22;87.66;100326.44;5034080;28;20470;-60
2021/08/07 05:37:10;;;;;;;;;;;;;;;16.29;87.25;100326.69;5033821;28;19920;-60
2021/08/07 05:39:36;;;;;;;;;;;;;;;16.25;87.50;100335.06;5033990;28;19943;-60
2021/08/07 05:42:03;;;;;;;;;;;;;;;16.29;87.01;100324.03;5034193;28;19921;-60
2021/08/07 05:44:30;;;;;;;;;;;;;;;16.36;87.36;100324.22;5034252;28;19943;-60
2021/08/07 05:46:56;;;;;;;;;;;;;;;16.38;86.83;100324.94;5033694;28;19921;-60
2021/08/07 05:49:23;;;;;;;;;;;;;;;16.38;86.43;100325.75;5046491;28;20257;-60
2021/08/07 05:51:50;;;;;;;;;;;;;;;16.38;86.20;100325.75;5031985;28;20280;-60
2021/08/07 05:54:17;;;;;;;;;;;;;;;16.38;86.10;100325.75;5033990;28;19943;-60
2021/08/07 05:56:44;;;;;;;;;;;;;;;16.43;86.27;100324.47;5033985;28;19925;-60
2021/08/07 05:59:10;;;;;;;;;;;;;;;16.50;86.33;100322.91;5033788;28;19921;-60
2021/08/07 06:01:37;;;;;;;;;;;;;;;16.56;86.09;100316.97;5031281;28;19924;-60
2021/08/07 06:04:04;;;;;;;;;;;;;;;16.61;85.38;100324.50;5031631;28;19925;-60
2021/08/07 06:06:31;;;;;;;;;;;;;;;16.61;85.35;100324.50;5033660;28;19921;-60
2021/08/07 06:08:57;;;;;;;;;;;;;;;16.67;83.97;100323.88;5031483;28;19921;-60
2021/08/07 06:11:24;;;;;;;;;;;;;;;16.69;84.94;100316.59;5046502;28;20275;-46
2021/08/07 06:13:51;;;;;;;;;;;;;;;16.76;84.34;100317.66;5047759;28;20032;-46
2021/08/07 06:16:17;;;;;;;;;;;;;;;16.85;84.19;100302.59;5033734;28;19921;-47
2021/08/07 06:18:44;;;;;;;;;;;;;;;16.85;83.12;100310.56;5033602;28;19925;-45
2021/08/07 06:21:11;;;;;;;;;;;;;;;16.91;82.26;100310.00;5032347;28;19949;-46
2021/08/07 06:23:37;;;;;;;;;;;;;;;17.04;82.27;100307.78;5048454;28;19975;-46
2021/08/07 06:26:04;;;;;;;;;;;;;;;17.31;81.47;100305.94;5032790;28;19955;-50
2021/08/07 06:28:31;;;;;;;;;;;;;;;17.31;82.24;100299.81;5033019;28;19971;-49
2021/08/07 06:30:58;;;;;;;;;;;;;;;17.37;80.53;100307.97;5044924;28;19967;-47
2021/08/07 06:33:25;;;;;;;;;;;;;;;17.35;78.69;100299.31;5030912;28;19921;-61
2021/08/07 06:35:51;;;;;;;;;;;;;;;17.48;79.38;100301.56;5033219;28;19921;-61
2021/08/07 06:38:18;;;;;;;;;;;;;;;17.60;78.67;100294.16;5033199;28;19948;-61
2021/08/07 06:40:44;;;;;;;;;;;;;;;17.71;78.06;100290.34;5033192;28;19955;-61
2021/08/07 06:43:11;;;;;;;;;;;;;;;17.82;76.76;100297.22;5032063;28;19972;-61
2021/08/07 06:45:38;;;;;;;;;;;;;;;17.96;77.58;100299.31;5031724;28;19957;-61
2021/08/07 06:48:05;;;;;;;;;;;;;;;18.09;77.40;100293.50;5033364;28;19927;-61
2021/08/07 06:50:32;;;;;;;;;;;;;;;18.19;75.59;100293.38;5033006;28;19921;-61
2021/08/07 06:52:58;;;;;;;;;;;;;;;18.28;75.52;100297.72;5032972;28;19928;-61
2021/08/07 06:55:25;;;;;;;;;;;;;;;18.39;72.85;100293.91;5031432;28;19960;-61
2021/08/07 06:57:51;;;;;;;;;;;;;;;18.57;73.70;100286.59;5043451;28;19921;-61
2021/08/07 07:00:18;;;;;;;;;;;;;;;18.57;72.78;100285.78;5029300;28;19921;-51
2021/08/07 07:02:45;;;;;;;;;;;;;;;18.62;70.71;100290.59;5033010;28;19921;-49
2021/08/07 07:05:12;;;;;;;;;;;;;;;18.67;71.39;100286.44;5031654;28;19925;-47
2021/08/07 07:07:39;;;;;;;;;;;;;;;18.76;71.15;100289.94;5029135;28;19987;-50
2021/08/07 07:10:07;;;;;;;;;;;;;;;18.75;69.75;100278.44;5031566;28;19987;-51
2021/08/07 07:12:33;;;;;;;;;;;;;;;18.92;69.58;100279.31;5032519;28;19921;-60
2021/08/07 07:15:00;;;;;;;;;;;;;;;19.08;68.61;100286.44;5027821;28;19921;-61
2021/08/07 07:17:28;;;;;;;;;;;;;;;19.19;66.71;100279.91;5031131;28;19975;-61
2021/08/07 07:19:55;;;;;;;;;;;;;;;19.36;66.49;100279.88;5032543;28;19928;-61
2021/08/07 07:22:22;;;;;;;;;;;;;;;19.50;66.65;100284.50;5031568;28;19921;-46
2021/08/07 07:24:49;;;;;;;;;;;;;;;19.58;65.85;100284.47;5032546;28;20372;-49
2021/08/07 07:27:16;;;;;;;;;;;;;;;19.73;65.64;100279.25;5045621;28;19975;-47
2021/08/07 07:29:42;;;;;;;;;;;;;;;19.87;65.48;100282.22;5028340;28;19928;-51
2021/08/07 07:32:09;;;;;;;;;;;;;;;20.05;65.90;100281.94;5031569;28;20510;-61
2021/08/07 07:34:36;;;;;;;;;;;;;;;20.06;66.14;100287.09;5030163;28;20398;-49
2021/08/07 07:37:03;;;;;;;;;;;;;;;20.24;65.45;100283.34;5031946;28;19928;-48
2021/08/07 07:39:30;;;;;;;;;;;;;;;20.43;64.39;100279.38;5036422;28;19920;-48
2021/08/07 07:41:57;;;;;;;;;;;;;;;20.50;64.64;100285.66;5048958;28;19921;-50
2021/08/07 07:44:23;;;;;;;;;;;;;;;20.65;63.50;100279.53;5032289;28;19921;-50
2021/08/07 07:46:50;;;;;;;;;;;;;;;20.83;65.03;100287.25;5036341;28;20327;-61
2021/08/07 07:49:17;;;;;;;;;;;;;;;20.97;61.51;100283.78;5051561;28;19975;-45
2021/08/07 07:51:44;;;;;;;;;;;;;;;20.74;60.19;100281.16;5036095;28;19928;-46
2021/08/07 07:54:10;;;;;;;;;;;;;;;20.58;61.68;100282.91;5036050;28;19925;-61
2021/08/07 07:56:37;;;;;;;;;;;;;;;20.77;62.85;100278.13;5035993;28;19974;-61
2021/08/07 07:59:04;;;;;;;;;;;;;;;20.74;63.14;100281.97;5035264;28;19921;-58
2021/08/07 08:01:30;;;;;;;;;;;;;;;20.89;62.26;100281.19;5048528;28;19921;-60
2021/08/07 08:03:58;;;;;;;;;;;;;;;21.09;62.42;100265.44;5034616;28;19927;-60
2021/08/07 08:06:24;;;;;;;;;;;;;;;21.23;62.39;100261.16;5035673;28;19937;-61
2021/08/07 08:08:51;;;;;;;;;;;;;;;21.38;60.29;100259.28;5032478;28;19920;-59
2021/08/07 08:11:18;;;;;;;;;;;;;;;21.41;61.76;100253.56;5033706;28;20364;-59
2021/08/07 08:13:44;;;;;;;;;;;;;;;21.88;61.32;100259.53;5035521;28;19925;-60
2021/08/07 08:16:11;;;;;;;;;;;;;;;21.92;59.48;100247.44;5034377;28;20347;-59
2021/08/07 08:18:38;;;;;;;;;;;;;;;22.17;60.12;100249.75;5033091;28;19921;-59
2021/08/07 08:21:05;;;;;;;;;;;;;;;22.09;59.22;100247.19;5034741;28;20230;-59
2021/08/07 08:23:31;;;;;;;;;;;;;;;22.23;58.56;100250.84;5050545;28;19932;-60
2021/08/07 08:25:58;;;;;;;;;;;;;;;22.40;56.63;100236.19;5032406;28;20015;-59
2021/08/07 08:28:25;;;;;;;;;;;;;;;22.48;57.09;100245.94;5049523;28;19925;-50
2021/08/07 08:30:51;;;;;;;;;;;;;;;22.72;56.32;100239.34;5034270;28;20410;-45
2021/08/07 08:33:18;;;;;;;;;;;;;;;22.79;55.91;100244.75;5033391;28;19928;-50
2021/08/07 08:35:46;;;;;;;;;;;;;;;22.83;55.46;100247.88;5032623;28;19928;-46
2021/08/07 08:38:13;;;;;;;;;;;;;;;23.00;55.29;100246.56;5050571;28;19921;-60
2021/08/07 08:40:40;;;;;;;;;;;;;;;23.09;55.30;100244.53;5035153;28;19920;-60
2021/08/07 08:43:06;;;;;;;;;;;;;;;23.46;53.74;100246.03;5033915;28;19921;-60
2021/08/07 08:45:33;;;;;;;;;;;;;;;23.52;52.74;100243.56;5035141;28;19975;-60
2021/08/07 08:48:01;;;;;;;;;;;;;;;23.34;54.04;100247.63;5035047;28;19928;-51
2021/08/07 08:50:28;;;;;;;;;;;;;;;23.25;55.28;100243.44;5034690;28;19963;-49
2021/08/07 08:52:56;;;;;;;;;;;;;;;23.61;54.06;100245.88;5031814;28;19929;-47
2021/08/07 08:55:22;;;;;;;;;;;;;;;23.37;53.42;100244.53;5049076;28;20304;-47
2021/08/07 08:57:49;;;;;;;;;;;;;;;22.83;55.30;100239.84;5034828;28;19928;-45
2021/08/07 09:00:16;;;;;;;;;;;;;;;22.96;54.80;100239.94;5032450;28;19959;-46
2021/08/07 09:02:43;;;;;;;;;;;;;;;23.01;55.47;100237.47;5032031;28;19927;-44
2021/08/07 09:05:10;;;;;;;;;;;;;;;23.20;55.88;100224.41;5033193;28;20300;-45
2021/08/07 09:07:37;;;;;;;;;;;;;;;23.16;52.75;100234.69;5031759;28;19924;-45
2021/08/07 09:10:04;;;;;;;;;;;;;;;23.25;52.51;100230.84;5031201;28;19921;-50
2021/08/07 09:12:38;;;;;;;;;;;;;;;23.54;53.77;100220.03;5034916;28;19920;-50
2021/08/07 09:15:06;;;;;;;;;;;;;;;23.59;51.96;100210.34;5010172;28;20340;-50
2021/08/07 09:17:32;;;;;;;;;;;;;;;23.77;52.46;100214.34;5009991;28;20373;-50
2021/08/07 09:19:59;;;;;;;;;;;;;;;23.80;52.53;100211.25;4995296;28;19922;-48
2021/08/07 09:22:33;;;;;;;;;;;;;;;23.35;52.78;100208.19;4995381;28;20377;-50
2021/08/07 09:25:01;;;;;;;;;;;;;;;23.69;52.62;100209.16;4992585;28;19953;-48
2021/08/07 09:27:32;;;;;;;;;;;;;;;23.41;51.57;100207.38;4992215;28;19976;-46
2021/08/07 09:30:00;;;;;;;;;;;;;;;23.65;53.82;100211.41;4992548;28;19976;-46
2021/08/07 09:32:26;;;;;;;;;;;;;;;23.28;52.18;100206.28;4994431;28;19926;-49
2021/08/07 09:35:08;;;;;;;;;;;;;;;23.15;52.84;100194.69;4991583;28;19925;-45
2021/08/07 09:37:35;;;;;;;;;;;;;;;23.49;54.03;100196.47;4993539;28;19976;-48
2021/08/07 09:40:04;;;;;;;;;;;;;;;23.38;54.41;100191.69;4995002;28;19929;-49
2021/08/07 09:42:31;;;;;;;;;;;;;;;23.40;53.48;100195.03;5009726;28;19922;-51
2021/08/07 09:45:04;;;;;;;;;;;;;;;23.45;53.68;100188.03;4993290;28;19921;-45
2021/08/07 09:47:32;;;;;;;;;;;;;;;23.72;54.99;100184.59;4994493;28;19991;-48
2021/08/07 09:49:58;;;;;;;;;;;;;;;24.05;53.54;100173.94;4991501;28;19953;-50
2021/08/07 09:52:36;;;;;;;;;;;;;;;24.18;52.95;100181.19;4990131;28;19932;-57
2021/08/07 09:55:03;;;;;;;;;;;;;;;24.26;52.80;100180.16;4993691;28;19922;-56
2021/08/07 09:57:30;;;;;;;;;;;;;;;24.24;51.97;100175.00;4994507;28;20369;-55
2021/08/07 09:59:56;;;;;;;;;;;;;;;24.34;52.72;100173.72;4993857;28;19922;-52
2021/08/07 10:02:24;;;;;;;;;;;;;;;24.68;52.39;100180.78;4994519;28;19921;-53
2021/08/07 10:04:51;;;;;;;;;;;;;;;25.00;51.26;100174.72;4994549;28;20017;-48
2021/08/07 10:07:18;;;;;;;;;;;;;;;24.66;51.13;100182.84;5009082;28;19921;-53
2021/08/07 10:09:45;;;;;;;;;;;;;;;24.53;50.89;100175.59;4994073;28;19967;-50
2021/08/07 10:12:12;;;;;;;;;;;;;;;24.80;52.20;100164.81;4993430;28;19930;-49
2021/08/07 10:14:40;;;;;;;;;;;;;;;25.11;51.29;100172.22;5037617;28;20311;-51
2021/08/07 10:17:07;;;;;;;;;;;;;;;24.98;51.07;100167.69;5031808;28;19943;-49
2021/08/07 10:19:34;;;;;;;;;;;;;;;24.56;50.14;100174.38;5032151;28;19983;-48
2021/08/07 10:22:01;;;;;;;;;;;;;;;24.82;50.52;100156.56;5029459;28;19974;-48
2021/08/07 10:24:28;;;;;;;;;;;;;;;24.53;50.36;100167.53;5030394;28;19971;-51
2021/08/07 10:26:58;;;;;;;;;;;;;;;24.48;49.58;100162.78;5032179;28;20373;-49
2021/08/07 10:29:34;;;;;;;;;;;;;;;24.25;50.51;100159.69;5033489;28;19921;-50
2021/08/07 10:32:02;;;;;;;;;;;;;;;24.56;51.44;100163.63;5030456;28;20338;-51
2021/08/07 10:34:29;;;;;;;;;;;;;;;24.47;49.41;100152.25;5045569;28;19964;-51
2021/08/07 10:36:55;;;;;;;;;;;;;;;24.84;49.86;100147.22;5032522;28;20326;-51
2021/08/07 10:39:22;;;;;;;;;;;;;;;24.94;49.66;100150.31;5048015;28;19971;-49
2021/08/07 10:41:49;;;;;;;;;;;;;;;24.67;49.84;100138.00;5032804;28;19925;-50
2021/08/07 10:44:15;;;;;;;;;;;;;;;24.71;49.07;100133.84;5032959;28;19925;-48
2021/08/07 10:46:42;;;;;;;;;;;;;;;24.74;52.03;100144.19;5048373;28;19963;-51
2021/08/07 10:49:11;;;;;;;;;;;;;;;24.55;50.72;100138.59;5029844;28;19931;-61
2021/08/07 10:51:38;;;;;;;;;;;;;;;24.16;50.47;100139.44;5044479;28;19925;-62
2021/08/07 10:54:24;;;;;;;;;;;;;;;24.03;49.92;100143.78;5032461;28;19921;-61
2021/08/07 10:56:50;;;;;;;;;;;;;;;24.19;48.99;100137.19;5032328;28;20377;-61
2021/08/07 10:59:18;;;;;;;;;;;;;;;24.40;50.20;100127.25;5031236;28;19921;-61
2021/08/07 11:01:46;;;;;;;;;;;;;;;24.43;50.07;100121.44;5047671;28;19925;-62
2021/08/07 11:04:16;;;;;;;;;;;;;;;24.53;49.75;100126.38;5032517;28;20399;-61
2021/08/07 11:06:43;;;;;;;;;;;;;;;24.56;49.62;100118.75;5032787;28;19924;-62
2021/08/07 11:09:16;;;;;;;;;;;;;;;25.12;49.03;100114.66;5032430;28;19921;-62
2021/08/07 11:11:43;;;;;;;;;;;;;;;25.11;49.09;100107.66;5046683;28;19971;-62
2021/08/07 11:14:19;;;;;;;;;;;;;;;25.38;46.92;100118.31;5032313;28;19921;-61
2021/08/07 11:16:49;;;;;;;;;;;;;;;25.54;47.18;100108.91;5031933;28;20366;-61
2021/08/07 11:19:35;;;;;;;;;;;;;;;25.74;44.19;100105.25;5044629;28;19974;-61
2021/08/07 11:22:01;;;;;;;;;;;;;;;25.60;44.46;100104.50;5031050;28;20245;-61
2021/08/07 11:24:43;;;;;;;;;;;;;;;26.15;44.14;100099.34;5032762;28;20411;-62
2021/08/07 11:27:22;;;;;;;;;;;;;;;26.24;41.44;100088.31;5029799;28;19925;-47
2021/08/07 11:30:07;;;;;;;;;;;;;;;26.38;42.61;100079.06;5026684;28;20019;-53
2021/08/07 11:32:33;;;;;;;;;;;;;;;26.12;41.99;100089.03;5032401;28;19951;-52
2021/08/07 11:35:00;;;;;;;;;;;;;;;26.62;42.23;100084.59;5032064;28;19921;-51
2021/08/07 11:37:27;;;;;;;;;;;;;;;26.64;41.03;100090.56;5032740;28;19944;-49
2021/08/07 11:40:03;;;;;;;;;;;;;;;26.78;41.72;100078.63;5031580;28;19986;-51
2021/08/07 11:42:45;;;;;;;;;;;;;;;27.27;40.60;100075.13;5032299;28;19928;-51
2021/08/07 11:45:17;;;;;;;;;;;;;;;27.14;39.88;100076.91;5032515;28;19921;-50
2021/08/07 11:47:48;;;;;;;;;;;;;;;27.66;40.76;100072.88;5032320;28;19921;-52
2021/08/07 11:50:14;;;;;;;;;;;;;;;27.90;38.27;100068.34;5032290;28;19928;-51
2021/08/07 11:52:41;;;;;;;;;;;;;;;28.46;38.62;100058.03;5045970;28;19991;-52
2021/08/07 11:55:08;;;;;;;;;;;;;;;28.27;37.65;100061.94;5029173;28;19925;-48
2021/08/07 11:57:34;;;;;;;;;;;;;;;27.66;37.08;100067.50;5031367;28;19925;-50
2021/08/07 12:00:17;;;;;;;;;;;;;;;27.27;38.33;100067.03;5032315;28;20360;-48
2021/08/07 12:02:53;;;;;;;;;;;;;;;28.19;38.62;100056.88;5032294;28;19932;-50
2021/08/07 12:05:21;;;;;;;;;;;;;;;28.65;36.47;100061.44;5030928;28;19928;-53
2021/08/07 12:08:04;;;;;;;;;;;;;;;28.42;35.95;100050.63;5029928;28;19971;-48
2021/08/07 12:10:31;;;;;;;;;;;;;;;28.65;36.36;100049.78;5029156;28;19971;-49
2021/08/07 12:12:59;;;;;;;;;;;;;;;28.77;35.92;100047.88;5029847;28;19925;-52
2021/08/07 12:15:25;;;;;;;;;;;;;;;28.72;34.90;100049.66;5029379;28;20285;-49
2021/08/07 12:17:52;;;;;;;;;;;;;;;28.07;35.14;100048.78;5045646;28;19928;-52
2021/08/07 12:20:19;;;;;;;;;;;;;;;27.97;35.96;100041.22;5031942;28;20364;-49
2021/08/07 12:23:12;;;;;;;;;;;;;;;27.95;35.69;100048.72;5044451;28;19925;-50
2021/08/07 12:25:41;;;;;;;;;;;;;;;27.83;36.37;100046.84;5033325;28;19921;-47
2021/08/07 12:28:11;;;;;;;;;;;;;;;28.47;35.21;100035.34;5035699;28;20379;-50
2021/08/07 12:30:50;;;;;;;;;;;;;;;28.70;35.52;100039.09;5050620;28;19921;-51
2021/08/07 12:33:17;;;;;;;;;;;;;;;29.18;34.11;100037.81;5035371;28;19929;-51
2021/08/07 12:35:44;;;;;;;;;;;;;;;29.29;33.34;100032.63;5034030;28;20403;-53
2021/08/07 12:38:11;;;;;;;;;;;;;;;29.36;33.74;100022.47;5033137;28;20384;-51